Time;durP1;ratioP1;P1;durP2;ratioP2;P2;SDS_P1;SDS_P2;PMS_P1;PMS_P2;Temp;Humidity;BMP_temperature;BMP_pressure;BME280_temperature;BME280_humidity;BME280_pressure;Samples;Min_cycle;Max_cycle;Signal;HPM_P1;HPM_P2
2024/03/17 00:02:23;;;;;;;54.70;47.67;;;;;;;8.92;77.53;99389.22;5094649;28;20107;-49
2024/03/17 00:04:49;;;;;;;22.30;19.20;;;;;;;8.98;78.02;99385.09;5092013;28;20507;-49
2024/03/17 00:07:15;;;;;;;45.13;38.83;;;;;;;9.32;78.58;99370.81;5093517;28;20034;-49
2024/03/17 00:09:44;;;;;;;28.52;22.75;;;;;;;9.46;77.76;99371.84;5093321;28;20036;-49
2024/03/17 00:12:11;;;;;;;38.30;34.17;;;;;;;9.54;77.25;99372.59;5094482;28;20016;-49
2024/03/17 00:14:38;;;;;;;25.73;22.40;;;;;;;9.65;77.35;99373.16;5094416;28;20035;-49
2024/03/17 00:17:04;;;;;;;37.55;33.80;;;;;;;9.83;76.92;99380.69;5093219;28;20174;-48
2024/03/17 00:19:33;;;;;;;24.52;21.05;;;;;;;9.91;76.27;99362.25;5094617;28;20099;-49
2024/03/17 00:21:58;;;;;;;22.27;15.88;;;;;;;9.72;74.73;99372.28;5094056;28;20034;-49
2024/03/17 00:24:24;;;;;;;21.17;14.57;;;;;;;9.43;74.36;99366.94;5092998;28;20099;-49
2024/03/17 00:26:53;;;;;;;16.38;11.23;;;;;;;9.25;75.30;99362.00;5094250;28;20013;-49
2024/03/17 00:29:19;;;;;;;12.90;6.68;;;;;;;9.19;75.19;99373.97;5094155;28;20020;-49
2024/03/17 00:31:47;;;;;;;15.93;10.48;;;;;;;8.94;75.79;99362.88;5094227;28;20024;-49
2024/03/17 00:34:15;;;;;;;11.45;6.85;;;;;;;8.90;76.25;99370.25;5094074;28;20038;-49
2024/03/17 00:36:40;;;;;;;23.42;16.35;;;;;;;8.82;76.57;99365.06;5094056;28;20125;-49
2024/03/17 00:39:06;;;;;;;26.60;20.15;;;;;;;8.82;76.68;99354.59;5094062;28;20484;-49
2024/03/17 00:41:32;;;;;;;35.42;25.45;;;;;;;8.86;77.47;99358.50;5093977;28;20107;-49
2024/03/17 00:44:00;;;;;;;56.08;50.20;;;;;;;8.92;77.49;99357.00;5093874;28;20052;-49
2024/03/17 00:46:33;;;;;;;35.30;26.65;;;;;;;9.03;77.24;99347.91;5092735;28;20085;-49
2024/03/17 00:49:02;;;;;;;25.10;18.33;;;;;;;9.22;77.69;99341.41;5093675;28;20047;-49
2024/03/17 00:51:27;;;;;;;21.98;15.77;;;;;;;9.45;76.86;99330.91;5092519;28;20028;-49
2024/03/17 00:53:56;;;;;;;30.55;23.80;;;;;;;9.45;76.02;99330.91;5092570;28;20114;-49
2024/03/17 00:56:22;;;;;;;23.95;18.40;;;;;;;9.43;75.71;99328.44;5093577;28;20020;-49
2024/03/17 00:58:51;;;;;;;29.30;21.75;;;;;;;9.25;75.66;99330.56;5093557;28;20058;-49
2024/03/17 01:01:19;;;;;;;16.00;6.45;;;;;;;8.97;75.84;99323.25;5092205;28;20032;-49
2024/03/17 01:03:45;;;;;;;25.45;20.70;;;;;;;8.79;77.13;99323.50;5093617;28;20498;-49
2024/03/17 01:06:11;;;;;;;13.85;6.95;;;;;;;8.71;77.31;99324.41;5093435;28;20103;-49
2024/03/17 01:08:39;;;;;;;21.40;14.93;;;;;;;8.54;78.40;99313.19;5093408;28;20465;-49
2024/03/17 01:11:08;;;;;;;15.18;8.98;;;;;;;8.44;79.16;99317.81;5093232;28;20023;-49
2024/03/17 01:13:37;;;;;;;31.27;17.23;;;;;;;8.37;79.80;99308.97;5093232;28;20047;-49
2024/03/17 01:16:03;;;;;;;17.27;10.82;;;;;;;8.31;80.07;99304.44;5093200;28;20074;-49
2024/03/17 01:18:29;;;;;;;25.55;18.88;;;;;;;8.27;79.94;99301.38;5093228;28;20040;-49
2024/03/17 01:20:55;;;;;;;20.95;12.82;;;;;;;8.22;80.77;99303.66;5093285;28;20035;-49
2024/03/17 01:23:21;;;;;;;25.77;23.13;;;;;;;8.18;81.11;99303.19;5092838;28;20052;-49
2024/03/17 01:25:47;;;;;;;18.02;14.27;;;;;;;8.13;81.00;99294.22;5093091;28;20024;-49
2024/03/17 01:28:12;;;;;;;11.60;5.60;;;;;;;8.09;80.94;99290.31;5093034;28;20094;-49
2024/03/17 01:30:39;;;;;;;11.75;9.25;;;;;;;8.04;81.55;99284.78;5092070;28;20051;-49
2024/03/17 01:33:05;;;;;;;14.25;6.00;;;;;;;8.04;81.89;99290.81;5093009;28;20050;-49
2024/03/17 01:35:31;;;;;;;16.70;7.97;;;;;;;8.00;81.71;99279.06;5092922;28;20410;-49
2024/03/17 01:37:56;;;;;;;16.75;10.65;;;;;;;7.96;81.97;99281.19;5092918;28;20474;-49
2024/03/17 01:40:22;;;;;;;15.70;6.10;;;;;;;7.94;82.36;99271.91;5091504;28;20125;-49
2024/03/17 01:42:48;;;;;;;13.32;5.63;;;;;;;7.92;81.96;99273.88;5092727;28;20031;-49
2024/03/17 01:45:31;;;;;;;14.32;7.88;;;;;;;7.90;82.93;99275.84;5092685;28;20051;-49
2024/03/17 01:47:59;;;;;;;17.63;6.60;;;;;;;7.86;82.89;99274.53;5093009;28;20031;-49
2024/03/17 01:50:47;;;;;;;16.15;7.40;;;;;;;7.77;83.31;99268.53;5092648;28;20028;-49
2024/03/17 01:53:15;;;;;;;18.27;9.35;;;;;;;7.73;83.50;99262.03;5091312;28;20573;-49
2024/03/17 01:55:44;;;;;;;15.52;11.05;;;;;;;7.68;83.77;99259.88;5092564;28;20151;-49
2024/03/17 01:58:11;;;;;;;16.13;9.38;;;;;;;7.66;83.60;99261.03;5092515;28;20028;-49
2024/03/17 02:00:38;;;;;;;15.20;10.65;;;;;;;7.64;83.96;99258.59;5092511;28;20027;-49
2024/03/17 02:03:05;;;;;;;17.75;7.78;;;;;;;7.63;84.22;99259.59;5090998;28;20032;-49
2024/03/17 02:05:31;;;;;;;18.30;7.22;;;;;;;7.57;84.59;99257.66;5092324;28;20028;-49
2024/03/17 02:07:57;;;;;;;14.30;6.65;;;;;;;7.56;84.93;99246.38;5092413;28;20379;-49
2024/03/17 02:10:23;;;;;;;16.27;6.68;;;;;;;7.57;85.47;99248.00;5092329;28;20027;-49
2024/03/17 02:12:49;;;;;;;19.15;12.60;;;;;;;7.59;85.54;99232.97;5090976;28;20111;-49
2024/03/17 02:15:14;;;;;;;22.65;15.75;;;;;;;7.54;85.71;99231.84;5090990;28;20081;-49
2024/03/17 02:17:40;;;;;;;15.55;9.52;;;;;;;7.56;85.55;99225.47;5092208;28;20035;-49
2024/03/17 02:20:07;;;;;;;12.73;6.18;;;;;;;7.59;85.92;99213.91;5074065;28;20039;-49
2024/03/17 02:22:36;;;;;;;12.05;6.80;;;;;;;7.62;85.91;99213.53;5091923;28;20044;-49
2024/03/17 02:25:02;;;;;;;19.15;12.05;;;;;;;7.61;85.99;99209.31;5091096;28;20035;-49
2024/03/17 02:27:28;;;;;;;17.05;10.52;;;;;;;7.63;85.63;99193.47;5091272;28;20028;-49
2024/03/17 02:29:55;;;;;;;30.05;26.88;;;;;;;7.62;85.77;99182.19;5092084;28;20102;-49
2024/03/17 02:32:26;;;;;;;11.85;6.22;;;;;;;7.60;85.55;99182.34;5092055;28;20046;-49
2024/03/17 02:34:52;;;;;;;26.20;20.50;;;;;;;7.65;85.45;99187.09;5092033;28;20028;-49
2024/03/17 02:37:18;;;;;;;18.08;9.13;;;;;;;7.65;85.56;99187.09;5073854;28;20036;-49
2024/03/17 02:39:43;;;;;;;17.50;7.25;;;;;;;7.60;85.17;99194.59;5091924;28;20050;-49
2024/03/17 02:42:10;;;;;;;19.17;10.93;;;;;;;7.59;85.49;99196.41;5092166;28;20024;-49
2024/03/17 02:44:38;;;;;;;14.85;6.40;;;;;;;7.65;85.83;99192.31;5090832;28;20067;-49
2024/03/17 02:47:05;;;;;;;15.43;6.20;;;;;;;7.71;85.42;99183.00;5090484;28;20032;-49
2024/03/17 02:49:36;;;;;;;13.20;5.57;;;;;;;7.76;85.14;99184.09;5090652;28;20401;-49
2024/03/17 02:52:04;;;;;;;14.32;7.43;;;;;;;7.79;85.24;99185.56;5091752;28;20093;-49
2024/03/17 02:54:30;;;;;;;9.88;6.25;;;;;;;7.87;85.06;99190.75;5090454;28;20536;-49
2024/03/17 02:56:56;;;;;;;13.95;6.75;;;;;;;7.94;84.70;99188.28;5091730;28;20019;-49
2024/03/17 02:59:22;;;;;;;14.23;5.90;;;;;;;8.00;84.13;99192.81;5091702;28;20028;-49
2024/03/17 03:01:47;;;;;;;13.75;6.22;;;;;;;8.01;83.90;99186.63;5091703;28;20100;-49
2024/03/17 03:04:14;;;;;;;10.68;5.65;;;;;;;8.05;83.97;99193.13;5091664;28;20032;-49
2024/03/17 03:06:40;;;;;;;21.30;9.10;;;;;;;8.15;83.71;99193.72;5091942;28;20035;-49
2024/03/17 03:09:12;;;;;;;14.20;6.57;;;;;;;8.14;83.57;99186.84;5091624;28;20027;-49
2024/03/17 03:11:39;;;;;;;14.93;5.53;;;;;;;8.21;83.34;99200.06;5090703;28;20472;-49
2024/03/17 03:14:05;;;;;;;12.80;5.95;;;;;;;8.32;83.12;99199.66;5091609;28;20074;-49
2024/03/17 03:16:31;;;;;;;20.67;15.65;;;;;;;8.88;84.70;99196.84;5091522;28;20055;-49
2024/03/17 03:18:56;;;;;;;10.63;5.85;;;;;;;9.59;83.56;99196.47;5090246;28;20027;-48
2024/03/17 03:21:22;;;;;;;19.17;15.80;;;;;;;9.91;81.43;99191.84;5090362;28;20020;-49
2024/03/17 03:23:48;;;;;;;9.57;5.47;;;;;;;9.93;79.94;99189.84;5091319;28;20143;-49
2024/03/17 03:26:13;;;;;;;10.80;4.75;;;;;;;9.72;78.39;99188.00;5091569;28;20082;-49
2024/03/17 03:28:39;;;;;;;11.40;5.38;;;;;;;9.43;78.04;99181.75;5091566;28;20028;-49
2024/03/17 03:31:06;;;;;;;19.35;7.90;;;;;;;9.27;78.60;99179.31;5091509;28;20028;-49
2024/03/17 03:33:32;;;;;;;17.88;12.75;;;;;;;9.51;80.02;99184.28;5073599;28;20035;-49
2024/03/17 03:35:58;;;;;;;15.85;9.20;;;;;;;9.90;79.21;99187.59;5091413;28;20028;-49
2024/03/17 03:38:25;;;;;;;13.50;6.78;;;;;;;10.13;78.56;99187.47;5092056;28;20073;-49
2024/03/17 03:40:52;;;;;;;47.67;41.08;;;;;;;10.24;77.86;99184.38;5094045;28;20031;-48
2024/03/17 03:43:18;;;;;;;22.58;14.70;;;;;;;10.39;77.07;99187.78;5095033;28;20024;-49
2024/03/17 03:45:44;;;;;;;15.73;11.48;;;;;;;10.56;76.91;99175.22;5093737;28;20058;-49
2024/03/17 03:48:09;;;;;;;14.20;6.10;;;;;;;10.87;76.38;99178.50;5093653;28;20028;-49
2024/03/17 03:50:35;;;;;;;12.00;6.60;;;;;;;10.86;74.38;99182.13;5093641;28;20032;-49
2024/03/17 03:53:01;;;;;;;14.70;8.00;;;;;;;10.66;73.84;99190.63;5093552;28;20036;-49
2024/03/17 03:55:27;;;;;;;41.72;37.38;;;;;;;10.50;74.38;99194.34;5094864;28;20027;-49
2024/03/17 03:57:52;;;;;;;17.80;12.55;;;;;;;10.64;74.74;99190.00;5093505;28;20028;-49
2024/03/17 04:00:21;;;;;;;15.88;9.73;;;;;;;10.83;74.67;99188.56;5093484;28;20028;-49
2024/03/17 04:02:52;;;;;;;11.07;5.88;;;;;;;11.22;74.33;99191.69;5093368;28;20028;-49
2024/03/17 04:05:19;;;;;;;25.92;22.67;;;;;;;11.38;72.92;99197.44;5094619;28;20084;-49
2024/03/17 04:07:46;;;;;;;14.18;8.88;;;;;;;11.46;72.58;99208.81;5094691;28;20031;-49
2024/03/17 04:10:13;;;;;;;17.40;6.55;;;;;;;11.54;72.06;99211.31;5094550;28;20036;-49
2024/03/17 04:12:39;;;;;;;11.90;5.85;;;;;;;11.59;72.09;99207.09;5076400;28;20035;-49
2024/03/17 04:15:09;;;;;;;16.08;10.02;;;;;;;11.73;71.33;99200.09;5076311;28;20028;-49
2024/03/17 04:17:37;;;;;;;12.15;6.28;;;;;;;11.85;70.85;99202.16;5093198;28;20493;-50
2024/03/17 04:20:05;;;;;;;8.65;4.85;;;;;;;11.89;70.06;99198.97;5094405;28;20028;-49
2024/03/17 04:22:31;;;;;;;12.10;6.70;;;;;;;11.98;69.83;99199.63;5094108;28;20135;-50
2024/03/17 04:24:57;;;;;;;10.35;5.93;;;;;;;11.95;68.97;99200.00;5093063;28;20028;-49
2024/03/17 04:27:26;;;;;;;12.50;5.40;;;;;;;11.64;68.35;99196.00;5094540;28;20024;-49
2024/03/17 04:29:54;;;;;;;13.18;6.03;;;;;;;11.30;68.58;99192.34;5092914;28;20028;-49
2024/03/17 04:32:20;;;;;;;11.27;5.95;;;;;;;11.22;69.82;99200.38;5092832;28;20024;-49
2024/03/17 04:34:47;;;;;;;19.05;10.30;;;;;;;11.20;69.40;99197.94;5094192;28;20035;-49
2024/03/17 04:37:13;;;;;;;24.00;20.60;;;;;;;11.08;69.42;99199.47;5094092;28;20076;-49
2024/03/17 04:39:39;;;;;;;16.35;10.85;;;;;;;10.98;69.64;99206.88;5092778;28;20182;-49
2024/03/17 04:42:09;;;;;;;15.68;10.77;;;;;;;10.87;70.00;99202.94;5092675;28;20473;-49
2024/03/17 04:44:35;;;;;;;18.58;14.00;;;;;;;10.82;70.15;99200.06;5093912;28;20028;-49
2024/03/17 04:47:06;;;;;;;23.25;13.40;;;;;;;10.82;70.30;99201.88;5092566;28;20039;-49
2024/03/17 04:49:43;;;;;;;10.10;6.75;;;;;;;10.74;70.65;99203.63;5093976;28;20486;-49
2024/03/17 04:52:10;;;;;;;11.52;6.55;;;;;;;10.50;70.86;99212.72;5075195;28;20085;-49
2024/03/17 04:54:36;;;;;;;16.45;7.43;;;;;;;10.32;71.62;99214.94;5094077;28;20022;-49
2024/03/17 04:57:02;;;;;;;12.80;5.63;;;;;;;10.08;71.71;99211.63;5093718;28;20019;-49
2024/03/17 04:59:29;;;;;;;12.25;5.95;;;;;;;9.69;72.42;99214.56;5093715;28;20496;-49
2024/03/17 05:01:54;;;;;;;11.05;5.60;;;;;;;9.31;73.64;99215.44;5093594;28;20032;-49
2024/03/17 05:04:20;;;;;;;15.52;4.97;;;;;;;9.05;74.99;99204.56;5093551;28;20024;-49
2024/03/17 05:06:49;;;;;;;12.88;5.93;;;;;;;8.83;76.38;99209.63;5092188;28;20028;-49
2024/03/17 05:09:19;;;;;;;17.27;9.18;;;;;;;8.92;77.83;99205.97;5092511;28;20027;-49
2024/03/17 05:11:45;;;;;;;119.95;108.97;;;;;;;9.08;77.50;99209.44;5093415;28;20028;-49
2024/03/17 05:14:11;;;;;;;25.10;21.45;;;;;;;9.28;77.78;99217.63;5093389;28;20027;-48
2024/03/17 05:16:37;;;;;;;67.32;60.75;;;;;;;9.72;78.34;99214.19;5091932;28;20020;-49
2024/03/17 05:19:03;;;;;;;26.75;24.05;;;;;;;10.09;77.04;99212.44;5091945;28;20032;-49
2024/03/17 05:21:30;;;;;;;52.22;46.92;;;;;;;10.26;75.99;99199.91;5091923;28;20028;-49
2024/03/17 05:23:57;;;;;;;29.42;25.10;;;;;;;10.42;75.84;99197.06;5091471;28;20052;-49
2024/03/17 05:26:24;;;;;;;26.40;22.50;;;;;;;10.56;75.19;99193.59;5093388;28;20035;-49
2024/03/17 05:28:50;;;;;;;24.77;19.23;;;;;;;10.64;74.63;99190.00;5093065;28;20070;-49
2024/03/17 05:31:17;;;;;;;10.50;5.63;;;;;;;10.41;73.02;99194.66;5091695;28;20085;-49
2024/03/17 05:33:44;;;;;;;13.73;8.77;;;;;;;9.91;73.07;99202.34;5093017;28;20023;-49
2024/03/17 05:36:13;;;;;;;14.35;8.75;;;;;;;9.46;74.43;99204.97;5091655;28;20024;-49
2024/03/17 05:38:39;;;;;;;18.65;9.75;;;;;;;9.19;75.62;99198.53;5091645;28;20024;-49
2024/03/17 05:41:09;;;;;;;15.07;9.35;;;;;;;9.03;76.89;99202.09;5093088;28;20459;-49
2024/03/17 05:43:36;;;;;;;16.73;10.23;;;;;;;8.86;77.49;99195.41;5092971;28;20032;-49
2024/03/17 05:46:07;;;;;;;24.10;21.55;;;;;;;8.79;78.89;99205.75;5092772;28;20030;-49
2024/03/17 05:48:37;;;;;;;17.73;10.27;;;;;;;8.73;79.58;99201.22;5091507;28;20035;-49
2024/03/17 05:51:04;;;;;;;16.63;9.55;;;;;;;8.64;80.11;99191.81;5092732;28;20023;-49
2024/03/17 05:53:31;;;;;;;37.28;33.38;;;;;;;8.67;80.87;99194.06;5092591;28;20024;-49
2024/03/17 05:56:01;;;;;;;12.13;8.07;;;;;;;8.85;80.97;99202.41;5092582;28;20447;-49
2024/03/17 05:58:27;;;;;;;21.25;15.32;;;;;;;8.87;80.29;99205.69;5091262;28;20027;-49
2024/03/17 06:00:52;;;;;;;19.65;11.85;;;;;;;8.83;80.30;99201.78;5091187;28;20032;-49
2024/03/17 06:03:18;;;;;;;14.73;9.15;;;;;;;8.86;80.57;99214.53;5091075;28;20058;-49
2024/03/17 06:05:47;;;;;;;20.85;18.00;;;;;;;8.92;80.02;99218.25;5092395;28;20393;-49
2024/03/17 06:08:13;;;;;;;21.27;15.15;;;;;;;9.12;80.53;99222.00;5091130;28;20024;-49
2024/03/17 06:10:44;;;;;;;13.50;6.38;;;;;;;9.26;79.68;99236.13;5092400;28;20019;-49
2024/03/17 06:13:15;;;;;;;51.28;44.90;;;;;;;9.40;80.02;99243.19;5091083;28;20560;-49
2024/03/17 06:15:41;;;;;;;41.42;37.35;;;;;;;9.79;79.95;99242.09;5090941;28;20062;-49
2024/03/17 06:18:10;;;;;;;32.55;29.05;;;;;;;9.95;79.47;99253.41;5092290;28;20478;-49
2024/03/17 06:20:39;;;;;;;44.35;39.75;;;;;;;10.07;78.48;99261.63;5091167;28;20032;-49
2024/03/17 06:23:04;;;;;;;136.52;124.05;;;;;;;10.14;78.68;99260.72;5090545;28;20506;-49
2024/03/17 06:25:30;;;;;;;60.35;54.50;;;;;;;10.40;79.22;99262.03;5092103;28;20019;-49
2024/03/17 06:27:57;;;;;;;38.83;34.88;;;;;;;10.76;78.83;99262.00;5090746;28;20450;-49
2024/03/17 06:30:22;;;;;;;32.65;29.17;;;;;;;10.97;77.22;99250.72;5090720;28;20515;-49
2024/03/17 06:32:48;;;;;;;58.10;52.42;;;;;;;11.22;76.73;99252.13;5092006;28;20028;-49
2024/03/17 06:35:25;;;;;;;64.43;58.40;;;;;;;11.35;75.59;99252.22;5091949;28;20386;-49
2024/03/17 06:37:52;;;;;;;44.03;39.53;;;;;;;11.59;75.28;99250.97;5090738;28;20484;-49
2024/03/17 06:40:18;;;;;;;15.35;9.98;;;;;;;11.60;73.83;99244.69;5090601;28;20032;-49
2024/03/17 06:42:44;;;;;;;15.00;7.25;;;;;;;11.42;73.54;99239.13;5091798;28;20024;-49
2024/03/17 06:45:10;;;;;;;62.75;56.35;;;;;;;11.27;73.81;99241.84;5090548;28;20097;-49
2024/03/17 06:47:39;;;;;;;18.00;15.45;;;;;;;11.19;73.57;99251.50;5090538;28;20028;-49
2024/03/17 06:50:06;;;;;;;19.50;17.10;;;;;;;11.28;73.58;99254.78;5090539;28;20466;-49
2024/03/17 06:52:32;;;;;;;24.95;18.65;;;;;;;11.58;73.73;99251.97;5091836;28;20575;-49
2024/03/17 06:54:58;;;;;;;22.45;19.17;;;;;;;11.78;72.11;99247.63;5091850;28;20027;-49
2024/03/17 06:57:24;;;;;;;42.63;38.05;;;;;;;11.86;71.19;99246.66;5091770;28;20035;-49
2024/03/17 06:59:50;;;;;;;59.65;53.67;;;;;;;11.87;71.19;99255.38;5091731;28;20023;-49
2024/03/17 07:02:18;;;;;;;15.85;12.48;;;;;;;11.86;70.52;99257.19;5091708;28;20030;-49
2024/03/17 07:04:47;;;;;;;12.23;7.40;;;;;;;11.70;70.57;99258.31;5091666;28;20587;-49
2024/03/17 07:07:14;;;;;;;15.80;6.97;;;;;;;11.31;70.45;99251.00;5073867;28;20028;-49
2024/03/17 07:09:40;;;;;;;16.15;6.95;;;;;;;10.87;71.16;99258.09;5090316;28;20118;-49
2024/03/17 07:12:10;;;;;;;10.88;6.55;;;;;;;10.55;72.57;99256.78;5091664;28;20023;-49
2024/03/17 07:14:37;;;;;;;15.95;6.38;;;;;;;10.31;73.33;99250.84;5093123;28;20500;-49
2024/03/17 07:17:03;;;;;;;12.73;4.75;;;;;;;10.16;74.27;99256.09;5094344;28;20085;-49
2024/03/17 07:19:30;;;;;;;9.70;5.15;;;;;;;10.12;75.06;99238.28;5094351;28;20032;-49
2024/03/17 07:21:57;;;;;;;12.32;6.93;;;;;;;10.12;75.24;99240.91;5095783;28;20481;-49
2024/03/17 07:24:23;;;;;;;10.20;4.60;;;;;;;10.08;75.73;99244.88;5095301;28;20506;-49
2024/03/17 07:26:49;;;;;;;11.13;4.35;;;;;;;10.14;75.83;99258.09;5095488;28;20498;-49
2024/03/17 07:29:16;;;;;;;13.23;5.93;;;;;;;10.23;76.00;99250.13;5094108;28;20123;-49
2024/03/17 07:31:42;;;;;;;10.52;3.83;;;;;;;10.27;75.66;99246.13;5077205;28;20036;-49
2024/03/17 07:34:08;;;;;;;9.82;3.75;;;;;;;10.32;75.80;99246.41;5094046;28;20039;-49
2024/03/17 07:36:34;;;;;;;7.00;2.97;;;;;;;10.37;75.38;99251.94;5095287;28;20032;-49
2024/03/17 07:39:00;;;;;;;7.22;2.97;;;;;;;10.42;75.47;99248.75;5095230;28;20024;-49
2024/03/17 07:41:26;;;;;;;9.68;3.55;;;;;;;10.54;75.52;99244.63;5094050;28;20099;-49
2024/03/17 07:43:52;;;;;;;9.07;3.20;;;;;;;10.66;74.84;99237.09;5093748;28;20026;-49
2024/03/17 07:46:17;;;;;;;6.68;2.92;;;;;;;10.77;74.73;99232.16;5095078;28;20024;-49
2024/03/17 07:48:44;;;;;;;8.15;3.78;;;;;;;10.81;74.55;99242.28;5095073;28;20043;-49
2024/03/17 07:51:16;;;;;;;6.57;3.17;;;;;;;10.92;74.35;99233.88;5093784;28;20119;-49
2024/03/17 07:53:44;;;;;;;13.35;3.65;;;;;;;11.00;73.54;99225.88;5093761;28;20028;-49
2024/03/17 07:56:12;;;;;;;10.25;4.35;;;;;;;11.04;73.28;99226.31;5094846;28;20082;-49
2024/03/17 07:58:40;;;;;;;35.08;30.92;;;;;;;11.10;73.47;99221.09;5093880;28;20093;-49
2024/03/17 08:01:09;;;;;;;15.18;7.70;;;;;;;11.34;73.53;99232.19;5094815;28;20460;-49
2024/03/17 08:03:36;;;;;;;7.78;3.83;;;;;;;11.73;72.18;99229.00;5093374;28;20050;-49
2024/03/17 08:06:06;;;;;;;8.55;3.33;;;;;;;12.02;70.16;99224.53;5094734;28;20035;-49
2024/03/17 08:08:32;;;;;;;8.63;3.60;;;;;;;11.98;69.57;99220.66;5094641;28;20024;-49
2024/03/17 08:10:59;;;;;;;9.85;2.97;;;;;;;11.90;69.62;99205.84;5094597;28;20028;-49
2024/03/17 08:13:24;;;;;;;9.68;3.28;;;;;;;11.83;69.96;99205.00;5093570;28;20035;-49
2024/03/17 08:16:01;;;;;;;8.75;2.92;;;;;;;11.82;69.71;99203.34;5094499;28;20024;-49
2024/03/17 08:18:27;;;;;;;8.90;3.45;;;;;;;11.83;69.60;99199.75;5094518;28;20035;-49
2024/03/17 08:20:56;;;;;;;9.10;3.03;;;;;;;11.81;69.02;99191.19;5094458;28;20096;-49
2024/03/17 08:23:23;;;;;;;9.65;4.63;;;;;;;11.93;69.65;99188.84;5092984;28;20051;-49
2024/03/17 08:26:00;;;;;;;9.75;5.32;;;;;;;12.16;68.75;99178.81;5093193;28;20024;-49
2024/03/17 08:28:27;;;;;;;7.97;3.15;;;;;;;12.41;67.39;99161.66;5076153;28;20028;-49
2024/03/17 08:31:00;;;;;;;8.20;2.67;;;;;;;12.50;66.15;99155.22;5094574;28;20020;-49
2024/03/17 08:33:27;;;;;;;8.27;4.43;;;;;;;12.51;67.27;99155.00;5093206;28;20027;-49
2024/03/17 08:35:57;;;;;;;6.80;2.78;;;;;;;12.78;66.84;99147.13;5094164;28;20035;-49
2024/03/17 08:38:24;;;;;;;10.02;3.60;;;;;;;13.15;65.76;99145.66;5092863;28;20027;-49
2024/03/17 08:40:51;;;;;;;6.07;2.70;;;;;;;13.42;64.13;99137.72;5092817;28;20035;-49
2024/03/17 08:43:18;;;;;;;5.50;2.55;;;;;;;13.73;63.38;99139.63;5092692;28;20024;-49
2024/03/17 08:45:44;;;;;;;8.75;3.90;;;;;;;14.23;61.90;99132.91;5093876;28;20032;-49
2024/03/17 08:48:10;;;;;;;8.25;2.70;;;;;;;14.84;60.32;99119.03;5093973;28;20114;-49
2024/03/17 08:50:36;;;;;;;7.00;2.75;;;;;;;15.24;59.03;99126.59;5092840;28;20082;-49
2024/03/17 08:53:04;;;;;;;8.40;3.30;;;;;;;16.10;58.16;99130.03;5092592;28;20031;-47
2024/03/17 08:55:30;;;;;;;8.90;2.60;;;;;;;16.65;55.50;99130.84;5092725;28;20032;-47
2024/03/17 08:57:56;;;;;;;4.60;2.42;;;;;;;17.31;51.35;99119.09;5092452;28;20034;-47
2024/03/17 09:00:21;;;;;;;7.45;3.15;;;;;;;18.67;51.36;99119.44;5093743;28;20024;-47
2024/03/17 09:02:47;;;;;;;8.63;2.75;;;;;;;20.27;48.33;99096.41;5093552;28;20406;-47
2024/03/17 09:05:13;;;;;;;5.93;2.60;;;;;;;21.41;43.96;99098.72;5093632;28;20050;-47
2024/03/17 09:07:39;;;;;;;6.70;2.45;;;;;;;21.68;40.26;99101.25;5092249;28;20511;-47
2024/03/17 09:10:05;;;;;;;4.25;1.50;;;;;;;21.89;38.49;99107.44;5093515;28;20402;-48
2024/03/17 09:12:31;;;;;;;5.32;1.85;;;;;;;21.77;39.36;99114.91;5093459;28;20050;-48
2024/03/17 09:14:57;;;;;;;6.05;2.05;;;;;;;21.76;39.00;99107.97;5092401;28;20024;-47
2024/03/17 09:17:23;;;;;;;5.85;2.22;;;;;;;22.01;39.19;99099.19;5093307;28;20085;-47
2024/03/17 09:19:49;;;;;;;6.80;2.08;;;;;;;22.36;36.42;99098.44;5092086;28;20038;-48
2024/03/17 09:22:14;;;;;;;7.07;3.08;;;;;;;22.13;35.40;99099.72;5093303;28;20038;-48
2024/03/17 09:24:43;;;;;;;7.85;2.03;;;;;;;21.94;36.20;99102.13;5091882;28;20056;-48
2024/03/17 09:27:09;;;;;;;8.10;2.45;;;;;;;21.59;35.98;99103.66;5091815;28;20054;-47
2024/03/17 09:29:35;;;;;;;7.85;2.83;;;;;;;21.79;36.84;99091.41;5091800;28;20060;-47
2024/03/17 09:32:00;;;;;;;7.47;2.70;;;;;;;22.10;37.59;99084.25;5074926;28;20032;-48
2024/03/17 09:34:26;;;;;;;7.28;2.20;;;;;;;22.56;36.63;99080.75;5092989;28;20024;-48
2024/03/17 09:36:52;;;;;;;6.38;3.13;;;;;;;23.11;35.63;99089.78;5091552;28;20024;-48
2024/03/17 09:39:19;;;;;;;5.68;2.33;;;;;;;;;;5093076;28;20107;-48
2024/03/17 09:41:46;;;;;;;8.90;2.00;;;;;;;22.97;35.43;99081.50;5092776;28;20081;-48
2024/03/17 09:44:15;;;;;;;5.88;1.80;;;;;;;23.30;35.25;99082.78;5092809;28;20055;-48
2024/03/17 09:46:41;;;;;;;7.45;2.95;;;;;;;24.15;34.93;99080.13;5091589;28;20066;-48
2024/03/17 09:49:18;;;;;;;6.38;2.03;;;;;;;25.30;33.42;99086.56;5074923;28;20035;-48
2024/03/17 09:51:44;;;;;;;7.15;2.47;;;;;;;26.18;32.11;99082.69;5091571;28;20032;-48
2024/03/17 09:54:19;;;;;;;9.13;3.30;;;;;;;26.40;31.33;99077.50;5092623;28;20494;-48
2024/03/17 09:56:44;;;;;;;;;;;;;;;26.38;31.52;99074.28;5092010;28;20054;-48
2024/03/17 09:59:10;;;;;;;11.65;2.95;;;;;;;26.20;31.85;99078.63;5092545;28;19943;-48
2024/03/17 10:01:36;;;;;;;6.60;3.03;;;;;;;26.67;30.67;99071.38;5091240;28;20051;-48
2024/03/17 10:04:04;;;;;;;6.32;3.85;;;;;;;27.35;29.89;99060.91;5092436;28;20020;-48
2024/03/17 10:06:30;;;;;;;6.63;3.28;;;;;;;27.98;28.83;99067.34;5092414;28;20031;-48
2024/03/17 10:08:58;;;;;;;5.65;2.08;;;;;;;28.48;28.26;99052.91;5091099;28;20020;-48
2024/03/17 10:11:31;;;;;;;4.40;2.10;;;;;;;29.23;27.42;99058.47;5092280;28;20035;-48
2024/03/17 10:14:01;;;;;;;13.88;10.20;;;;;;;29.83;27.04;99056.97;5092400;28;20481;-48
2024/03/17 10:16:31;;;;;;;7.70;3.17;;;;;;;29.74;26.82;99061.56;5092305;28;20077;-48
2024/03/17 10:19:10;;;;;;;6.05;3.40;;;;;;;29.89;26.50;99063.78;5090954;28;20564;-48
2024/03/17 10:21:39;;;;;;;8.85;2.42;;;;;;;29.60;26.50;99069.78;5090908;28;20028;-48
2024/03/17 10:24:21;;;;;;;8.98;5.88;;;;;;;29.46;26.46;99075.38;5091930;28;20055;-48
2024/03/17 10:26:49;;;;;;;5.18;2.63;;;;;;;29.08;26.22;99065.09;5090844;28;20085;-48
2024/03/17 10:29:30;;;;;;;8.50;2.00;;;;;;;28.25;27.20;99066.44;5092106;28;20070;-48
2024/03/17 10:32:02;;;;;;;4.97;1.73;;;;;;;27.49;28.34;99069.00;5091006;28;20034;-47
2024/03/17 10:34:34;;;;;;;5.57;2.53;;;;;;;27.01;29.01;99066.72;5091074;28;20024;-48
2024/03/17 10:37:22;;;;;;;10.20;5.50;;;;;;;26.33;30.17;99074.38;5091984;28;20020;-48
2024/03/17 10:39:51;;;;;;;9.10;3.63;;;;;;;25.76;30.78;99060.97;5091047;28;20479;-48
2024/03/17 10:42:24;;;;;;;5.35;2.97;;;;;;;25.41;31.06;99068.44;5091904;28;20035;-48
2024/03/17 10:44:50;;;;;;;7.53;3.00;;;;;;;25.25;31.85;99049.03;5090690;28;20075;-48
2024/03/17 10:47:26;;;;;;;7.72;2.67;;;;;;;24.97;32.04;99055.25;5090521;28;20497;-48
2024/03/17 10:49:55;;;;;;;6.20;2.83;;;;;;;24.64;32.49;99060.44;5091251;28;20524;-48
2024/03/17 10:52:28;;;;;;;5.75;2.72;;;;;;;24.59;32.45;99053.25;5091846;28;20103;-48
2024/03/17 10:54:54;;;;;;;22.77;20.63;;;;;;;24.67;33.16;99055.31;5091866;28;20024;-47
2024/03/17 10:57:35;;;;;;;9.13;5.78;;;;;;;24.90;33.07;99053.72;5091796;28;20028;-47
2024/03/17 11:00:04;;;;;;;9.55;5.70;;;;;;;25.09;32.97;99044.91;5091687;28;20066;-48
2024/03/17 11:02:35;;;;;;;9.52;5.38;;;;;;;25.35;32.59;99044.59;5091666;28;20052;-48
2024/03/17 11:05:06;;;;;;;8.05;3.45;;;;;;;25.59;32.02;99045.34;5090265;28;20028;-48
2024/03/17 11:07:37;;;;;;;8.10;3.70;;;;;;;25.73;31.66;99041.94;5090295;28;20024;-48
2024/03/17 11:10:05;;;;;;;7.35;3.42;;;;;;;25.42;32.24;99035.09;5091711;28;20490;-48
2024/03/17 11:12:43;;;;;;;6.13;2.90;;;;;;;25.17;32.80;99036.19;5091959;28;20107;-48
2024/03/17 11:15:39;;;;;;;8.32;2.55;;;;;;;25.26;32.38;99031.81;5091557;28;20038;-47
2024/03/17 11:18:10;;;;;;;7.80;2.58;;;;;;;25.12;32.08;99044.34;5090344;28;20052;-47
2024/03/17 11:20:40;;;;;;;10.15;3.08;;;;;;;24.89;32.29;99043.25;5091776;28;20393;-47
2024/03/17 11:23:07;;;;;;;11.52;3.28;;;;;;;24.64;33.38;99038.97;5090085;28;20055;-48
2024/03/17 11:25:35;;;;;;;7.28;3.95;;;;;;;24.72;33.03;99033.75;5073470;28;20024;-47
2024/03/17 11:28:11;;;;;;;8.30;4.75;;;;;;;24.71;32.98;99045.59;5091536;28;20062;-47
2024/03/17 11:33:29;;;;;;;5.95;2.90;;;;;;;24.90;32.57;99048.34;5091499;28;20043;-48
2024/03/17 11:36:23;;;;;;;4.47;3.03;;;;;;;24.98;32.61;99041.53;5091511;28;20023;-48